Storm Events Database

Event Details

Event Thunderstorm Wind
Magnitude 50 kts.
State WISCONSIN
County/Area IRON
WFO DLH
Report Source Amateur Radio
NCDC Data Source CSV
Begin Date 2010-07-27 18:30:00.0 CST-6
Begin Location 0E MERCER
Begin Lat/Lon 46.17/-90.07
End Date 2010-07-27 18:30:00.0 CST-6
Deaths Direct/Indirect 0/0 (fatality details below, when available...)
Injuries Direct/Indirect 0/0
Property Damage 10.00K
Crop Damage
Episode Narrative A major severe weather episode occurred across northwest Wisconsin, with thunderstorms producing tornadoes, high winds, and large hail. A significant squall line with embedded supercells moved into northwest Wisconsin from Minnesota, with one particular storm producing three tornadoes in Ashland and Iron Counties. The Turtle Flambeau Flowage area of Iron County was hit the worst, with several injuries at a campground, massive tree damage, and structural damage occurring. Another area of major damage occurred in the Drummond and Delta areas, as down burst winds caused structural damage and destroyed hundreds of trees.
Event Narrative Numerous trees and power lines were blown down along Murray Landing Road.


     ‚Äč



All events for this episode:

Location County/Zone St. Date Time T.Z. Type Mag Dth Inj PrD CrD
Totals: 0 3 229.00K 0.00K
MAPLE DOUGLAS CO. WI 07/27/2010 15:58 CST-6 Thunderstorm Wind 50 kts. EG 0 0 1.50K 0.00K
BLUEBERRY DOUGLAS CO. WI 07/27/2010 16:00 CST-6 Thunderstorm Wind 50 kts. EG 0 0 1.50K 0.00K
IRON RIVER BAYFIELD CO. WI 07/27/2010 16:20 CST-6 Thunderstorm Wind 52 kts. EG 0 0 10.00K 0.00K
IRON RIVER BAYFIELD CO. WI 07/27/2010 16:20 CST-6 Hail 1.00 in. 0 0 0.00K 0.00K
INO BAYFIELD CO. WI 07/27/2010 16:30 CST-6 Hail 1.75 in. 0 0 8.00K 0.00K
IRON RIVER BAYFIELD CO. WI 07/27/2010 16:30 CST-6 Hail 1.75 in. 0 0 2.00K 0.00K
INO BAYFIELD CO. WI 07/27/2010 16:35 CST-6 Hail 2.75 in. 0 0 0.00K 0.00K
INO BAYFIELD CO. WI 07/27/2010 16:35 CST-6 Thunderstorm Wind 52 kts. EG 0 0 5.00K 0.00K
BENOIT BAYFIELD CO. WI 07/27/2010 16:45 CST-6 Thunderstorm Wind 50 kts. EG 0 0 5.00K 0.00K
MASON BAYFIELD CO. WI 07/27/2010 16:48 CST-6 Hail 1.00 in. 0 0 2.00K 0.00K
MARENGO ASHLAND CO. WI 07/27/2010 17:02 CST-6 Hail 1.75 in. 0 0 0.00K 0.00K
HIGH BRIDGE ASHLAND CO. WI 07/27/2010 17:14 CST-6 Hail 0.75 in. 0 0 0.00K 0.00K
HIGH BRIDGE ASHLAND CO. WI 07/27/2010 17:17 CST-6 Hail 1.00 in. 0 0 0.00K 0.00K
HIGH BRIDGE ASHLAND CO. WI 07/27/2010 17:19 CST-6 Hail 1.75 in. 0 0 0.00K 0.00K
MORSE ASHLAND CO. WI 07/27/2010 17:21 CST-6 Tornado EF2 0 0 0.00K 0.00K
MELLEN ASHLAND CO. WI 07/27/2010 17:22 CST-6 Hail 1.00 in. 0 0 0.00K 0.00K
MELLEN ASHLAND CO. WI 07/27/2010 17:26 CST-6 Hail 1.50 in. 0 0 0.00K 0.00K
GLIDDEN ASHLAND CO. WI 07/27/2010 17:28 CST-6 Thunderstorm Wind 50 kts. EG 0 0 0.00K 0.00K
HAYWARD SAWYER CO. WI 07/27/2010 17:50 CST-6 Hail 1.75 in. 0 0 0.00K 0.00K
INO BAYFIELD CO. WI 07/27/2010 17:53 CST-6 Thunderstorm Wind 50 kts. EG 0 0 0.00K 0.00K
PEEKSVILLE ASHLAND CO. WI 07/27/2010 18:12 CST-6 Tornado EF0 0 0 0.00K 0.00K
SPRINGSTEAD IRON CO. WI 07/27/2010 18:20 CST-6 Tornado EF1 0 3 160.00K 0.00K
MERCER IRON CO. WI 07/27/2010 18:30 CST-6 Thunderstorm Wind 50 kts. EG 0 0 5.00K 0.00K
MERCER IRON CO. WI 07/27/2010 18:30 CST-6 Thunderstorm Wind 50 kts. EG 0 0 10.00K 0.00K
SPOONER WASHBURN CO. WI 07/27/2010 18:30 CST-6 Thunderstorm Wind 50 kts. EG 0 0 0.50K 0.00K
STONE LAKE SAWYER CO. WI 07/27/2010 18:30 CST-6 Thunderstorm Wind 50 kts. EG 0 0 0.50K 0.00K
BIRCHWOOD WASHBURN CO. WI 07/27/2010 18:52 CST-6 Thunderstorm Wind 50 kts. EG 0 0 15.00K 0.00K
PARK FALLS PRICE CO. WI 07/27/2010 19:00 CST-6 Thunderstorm Wind 50 kts. EG 0 0 2.00K 0.00K
RADISSON SAWYER CO. WI 07/27/2010 19:06 CST-6 Thunderstorm Wind 50 kts. EG 0 0 1.00K 0.00K
Totals: 0 3 229.00K 0.00K